sensor_id;sensor_type;location;lat;lon;timestamp;P1;durP1;ratioP1;P2;durP2;ratioP2
9675;SDS011;4876;42.656;23.292;2023-04-08T00:01:14;28.10;;;21.53;;
9675;SDS011;4876;42.656;23.292;2023-04-08T00:03:40;31.77;;;21.07;;
9675;SDS011;4876;42.656;23.292;2023-04-08T00:06:09;32.80;;;20.53;;
9675;SDS011;4876;42.656;23.292;2023-04-08T00:08:35;29.77;;;21.07;;
9675;SDS011;4876;42.656;23.292;2023-04-08T00:11:02;30.73;;;20.80;;
9675;SDS011;4876;42.656;23.292;2023-04-08T00:13:29;31.53;;;21.60;;
9675;SDS011;4876;42.656;23.292;2023-04-08T00:15:56;27.37;;;20.50;;
9675;SDS011;4876;42.656;23.292;2023-04-08T00:18:23;26.83;;;20.83;;
9675;SDS011;4876;42.656;23.292;2023-04-08T00:20:50;29.93;;;20.73;;
9675;SDS011;4876;42.656;23.292;2023-04-08T00:23:18;26.63;;;19.50;;
9675;SDS011;4876;42.656;23.292;2023-04-08T00:25:45;27.67;;;20.53;;
9675;SDS011;4876;42.656;23.292;2023-04-08T00:28:12;24.37;;;18.77;;
9675;SDS011;4876;42.656;23.292;2023-04-08T00:30:39;27.70;;;19.37;;
9675;SDS011;4876;42.656;23.292;2023-04-08T00:33:06;23.63;;;18.80;;
9675;SDS011;4876;42.656;23.292;2023-04-08T00:35:34;28.80;;;18.90;;
9675;SDS011;4876;42.656;23.292;2023-04-08T00:38:00;28.47;;;20.27;;
9675;SDS011;4876;42.656;23.292;2023-04-08T00:40:29;24.23;;;18.57;;
9675;SDS011;4876;42.656;23.292;2023-04-08T00:42:55;24.33;;;19.23;;
9675;SDS011;4876;42.656;23.292;2023-04-08T00:45:23;26.27;;;19.63;;
9675;SDS011;4876;42.656;23.292;2023-04-08T00:47:50;26.53;;;19.50;;
9675;SDS011;4876;42.656;23.292;2023-04-08T00:50:17;27.40;;;19.83;;
9675;SDS011;4876;42.656;23.292;2023-04-08T00:52:44;32.03;;;21.00;;
9675;SDS011;4876;42.656;23.292;2023-04-08T00:55:11;30.50;;;21.30;;
9675;SDS011;4876;42.656;23.292;2023-04-08T00:57:39;30.37;;;21.17;;
9675;SDS011;4876;42.656;23.292;2023-04-08T01:00:07;28.77;;;22.00;;
9675;SDS011;4876;42.656;23.292;2023-04-08T01:02:35;38.33;;;23.67;;
9675;SDS011;4876;42.656;23.292;2023-04-08T01:05:14;37.77;;;24.87;;
9675;SDS011;4876;42.656;23.292;2023-04-08T01:07:49;39.60;;;26.27;;
9675;SDS011;4876;42.656;23.292;2023-04-08T01:10:18;32.60;;;21.73;;
9675;SDS011;4876;42.656;23.292;2023-04-08T01:12:49;30.93;;;22.13;;
9675;SDS011;4876;42.656;23.292;2023-04-08T01:15:19;36.00;;;23.63;;
9675;SDS011;4876;42.656;23.292;2023-04-08T01:17:47;31.07;;;23.43;;
9675;SDS011;4876;42.656;23.292;2023-04-08T01:20:18;32.97;;;24.40;;
9675;SDS011;4876;42.656;23.292;2023-04-08T01:22:50;37.47;;;25.70;;
9675;SDS011;4876;42.656;23.292;2023-04-08T01:25:29;35.27;;;24.67;;
9675;SDS011;4876;42.656;23.292;2023-04-08T01:27:59;34.47;;;25.10;;
9675;SDS011;4876;42.656;23.292;2023-04-08T01:30:28;36.83;;;24.03;;
9675;SDS011;4876;42.656;23.292;2023-04-08T01:32:56;34.73;;;23.90;;
9675;SDS011;4876;42.656;23.292;2023-04-08T01:35:25;35.13;;;24.33;;
9675;SDS011;4876;42.656;23.292;2023-04-08T01:37:52;35.73;;;24.73;;
9675;SDS011;4876;42.656;23.292;2023-04-08T01:40:20;36.33;;;25.20;;
9675;SDS011;4876;42.656;23.292;2023-04-08T01:42:47;31.47;;;21.17;;
9675;SDS011;4876;42.656;23.292;2023-04-08T01:45:17;30.70;;;20.63;;
9675;SDS011;4876;42.656;23.292;2023-04-08T01:47:45;33.53;;;22.80;;
9675;SDS011;4876;42.656;23.292;2023-04-08T01:50:15;33.33;;;22.60;;
9675;SDS011;4876;42.656;23.292;2023-04-08T01:52:43;35.30;;;24.13;;
9675;SDS011;4876;42.656;23.292;2023-04-08T01:55:11;33.60;;;24.20;;
9675;SDS011;4876;42.656;23.292;2023-04-08T01:57:38;32.27;;;23.13;;
9675;SDS011;4876;42.656;23.292;2023-04-08T02:00:08;33.87;;;23.60;;
9675;SDS011;4876;42.656;23.292;2023-04-08T02:02:37;33.77;;;23.80;;
9675;SDS011;4876;42.656;23.292;2023-04-08T02:05:07;31.07;;;21.50;;
9675;SDS011;4876;42.656;23.292;2023-04-08T02:07:34;31.67;;;21.13;;
9675;SDS011;4876;42.656;23.292;2023-04-08T02:10:01;28.73;;;21.30;;
9675;SDS011;4876;42.656;23.292;2023-04-08T02:12:28;24.87;;;18.80;;
9675;SDS011;4876;42.656;23.292;2023-04-08T02:14:56;28.37;;;19.70;;
9675;SDS011;4876;42.656;23.292;2023-04-08T02:17:24;26.70;;;16.13;;
9675;SDS011;4876;42.656;23.292;2023-04-08T02:19:58;27.27;;;16.70;;
9675;SDS011;4876;42.656;23.292;2023-04-08T02:22:29;23.50;;;17.23;;
9675;SDS011;4876;42.656;23.292;2023-04-08T02:25:04;22.77;;;16.87;;
9675;SDS011;4876;42.656;23.292;2023-04-08T02:27:35;23.57;;;17.17;;
9675;SDS011;4876;42.656;23.292;2023-04-08T02:30:05;26.27;;;17.23;;
9675;SDS011;4876;42.656;23.292;2023-04-08T02:32:33;26.47;;;19.13;;
9675;SDS011;4876;42.656;23.292;2023-04-08T02:35:03;31.27;;;21.13;;
9675;SDS011;4876;42.656;23.292;2023-04-08T02:37:31;31.93;;;22.20;;
9675;SDS011;4876;42.656;23.292;2023-04-08T02:39:58;36.87;;;22.17;;
9675;SDS011;4876;42.656;23.292;2023-04-08T02:42:25;35.80;;;22.47;;
9675;SDS011;4876;42.656;23.292;2023-04-08T02:44:52;32.70;;;22.97;;
9675;SDS011;4876;42.656;23.292;2023-04-08T02:47:19;34.07;;;22.83;;
9675;SDS011;4876;42.656;23.292;2023-04-08T02:49:46;38.27;;;23.90;;
9675;SDS011;4876;42.656;23.292;2023-04-08T02:52:18;35.50;;;24.13;;
9675;SDS011;4876;42.656;23.292;2023-04-08T02:54:45;35.80;;;23.87;;
9675;SDS011;4876;42.656;23.292;2023-04-08T02:57:11;33.27;;;24.47;;
9675;SDS011;4876;42.656;23.292;2023-04-08T02:59:38;39.90;;;26.60;;
9675;SDS011;4876;42.656;23.292;2023-04-08T03:02:05;35.00;;;26.00;;
9675;SDS011;4876;42.656;23.292;2023-04-08T03:04:32;39.03;;;27.27;;
9675;SDS011;4876;42.656;23.292;2023-04-08T03:06:59;33.13;;;25.63;;
9675;SDS011;4876;42.656;23.292;2023-04-08T03:09:27;38.87;;;27.57;;
9675;SDS011;4876;42.656;23.292;2023-04-08T03:11:53;36.40;;;26.47;;
9675;SDS011;4876;42.656;23.292;2023-04-08T03:14:20;38.47;;;28.10;;
9675;SDS011;4876;42.656;23.292;2023-04-08T03:16:47;41.23;;;27.70;;
9675;SDS011;4876;42.656;23.292;2023-04-08T03:19:14;40.43;;;28.43;;
9675;SDS011;4876;42.656;23.292;2023-04-08T03:21:40;42.23;;;27.80;;
9675;SDS011;4876;42.656;23.292;2023-04-08T03:24:07;40.30;;;27.33;;
9675;SDS011;4876;42.656;23.292;2023-04-08T03:26:35;49.13;;;28.37;;
9675;SDS011;4876;42.656;23.292;2023-04-08T03:29:02;43.50;;;26.90;;
9675;SDS011;4876;42.656;23.292;2023-04-08T03:31:31;37.40;;;27.00;;
9675;SDS011;4876;42.656;23.292;2023-04-08T03:33:57;38.63;;;27.83;;
9675;SDS011;4876;42.656;23.292;2023-04-08T03:36:24;38.67;;;27.13;;
9675;SDS011;4876;42.656;23.292;2023-04-08T03:38:52;46.50;;;26.50;;
9675;SDS011;4876;42.656;23.292;2023-04-08T03:41:18;40.17;;;27.10;;
9675;SDS011;4876;42.656;23.292;2023-04-08T03:43:46;40.50;;;27.70;;
9675;SDS011;4876;42.656;23.292;2023-04-08T03:46:13;40.30;;;27.67;;
9675;SDS011;4876;42.656;23.292;2023-04-08T03:48:40;40.40;;;27.00;;
9675;SDS011;4876;42.656;23.292;2023-04-08T03:51:07;35.80;;;26.07;;
9675;SDS011;4876;42.656;23.292;2023-04-08T03:53:34;38.83;;;27.13;;
9675;SDS011;4876;42.656;23.292;2023-04-08T03:56:01;40.50;;;27.30;;
9675;SDS011;4876;42.656;23.292;2023-04-08T03:58:28;39.27;;;26.57;;
9675;SDS011;4876;42.656;23.292;2023-04-08T04:00:57;38.53;;;26.07;;
9675;SDS011;4876;42.656;23.292;2023-04-08T04:03:24;37.73;;;25.33;;
9675;SDS011;4876;42.656;23.292;2023-04-08T04:05:51;42.83;;;25.73;;
9675;SDS011;4876;42.656;23.292;2023-04-08T04:08:18;41.20;;;25.67;;
9675;SDS011;4876;42.656;23.292;2023-04-08T04:10:45;39.57;;;25.03;;
9675;SDS011;4876;42.656;23.292;2023-04-08T04:13:12;45.50;;;26.33;;
9675;SDS011;4876;42.656;23.292;2023-04-08T04:15:38;38.80;;;26.53;;
9675;SDS011;4876;42.656;23.292;2023-04-08T04:18:07;37.83;;;27.17;;
9675;SDS011;4876;42.656;23.292;2023-04-08T04:20:34;45.57;;;26.87;;
9675;SDS011;4876;42.656;23.292;2023-04-08T04:23:02;43.80;;;26.97;;
9675;SDS011;4876;42.656;23.292;2023-04-08T04:25:29;36.37;;;26.77;;
9675;SDS011;4876;42.656;23.292;2023-04-08T04:27:56;40.83;;;26.23;;
9675;SDS011;4876;42.656;23.292;2023-04-08T04:30:22;36.07;;;25.83;;
9675;SDS011;4876;42.656;23.292;2023-04-08T04:32:50;37.73;;;27.43;;
9675;SDS011;4876;42.656;23.292;2023-04-08T04:35:18;36.67;;;24.63;;
9675;SDS011;4876;42.656;23.292;2023-04-08T04:37:45;33.77;;;25.07;;
9675;SDS011;4876;42.656;23.292;2023-04-08T04:40:14;39.50;;;24.47;;
9675;SDS011;4876;42.656;23.292;2023-04-08T04:42:41;35.07;;;21.40;;
9675;SDS011;4876;42.656;23.292;2023-04-08T04:45:08;31.90;;;23.47;;
9675;SDS011;4876;42.656;23.292;2023-04-08T04:47:35;35.53;;;22.97;;
9675;SDS011;4876;42.656;23.292;2023-04-08T04:50:02;27.60;;;19.87;;
9675;SDS011;4876;42.656;23.292;2023-04-08T04:52:31;30.63;;;21.37;;
9675;SDS011;4876;42.656;23.292;2023-04-08T04:54:57;34.13;;;20.97;;
9675;SDS011;4876;42.656;23.292;2023-04-08T04:57:24;30.07;;;20.17;;
9675;SDS011;4876;42.656;23.292;2023-04-08T04:59:51;24.80;;;17.80;;
9675;SDS011;4876;42.656;23.292;2023-04-08T05:02:18;25.30;;;18.97;;
9675;SDS011;4876;42.656;23.292;2023-04-08T05:04:45;29.77;;;18.50;;
9675;SDS011;4876;42.656;23.292;2023-04-08T05:07:11;24.90;;;18.27;;
9675;SDS011;4876;42.656;23.292;2023-04-08T05:09:39;24.83;;;19.03;;
9675;SDS011;4876;42.656;23.292;2023-04-08T05:12:06;37.10;;;24.30;;
9675;SDS011;4876;42.656;23.292;2023-04-08T05:14:33;46.53;;;25.60;;
9675;SDS011;4876;42.656;23.292;2023-04-08T05:17:00;41.07;;;27.13;;
9675;SDS011;4876;42.656;23.292;2023-04-08T05:19:27;41.10;;;29.07;;
9675;SDS011;4876;42.656;23.292;2023-04-08T05:21:54;44.83;;;26.63;;
9675;SDS011;4876;42.656;23.292;2023-04-08T05:24:20;39.93;;;25.37;;
9675;SDS011;4876;42.656;23.292;2023-04-08T05:26:49;42.40;;;24.73;;
9675;SDS011;4876;42.656;23.292;2023-04-08T05:29:17;40.50;;;25.60;;
9675;SDS011;4876;42.656;23.292;2023-04-08T05:31:45;39.23;;;24.37;;
9675;SDS011;4876;42.656;23.292;2023-04-08T05:34:12;36.83;;;23.23;;
9675;SDS011;4876;42.656;23.292;2023-04-08T05:36:39;41.03;;;24.60;;
9675;SDS011;4876;42.656;23.292;2023-04-08T05:39:06;34.53;;;22.53;;
9675;SDS011;4876;42.656;23.292;2023-04-08T05:41:33;32.70;;;23.30;;
9675;SDS011;4876;42.656;23.292;2023-04-08T05:44:01;33.70;;;23.43;;
9675;SDS011;4876;42.656;23.292;2023-04-08T05:46:28;31.03;;;18.37;;
9675;SDS011;4876;42.656;23.292;2023-04-08T05:48:55;27.63;;;17.60;;
9675;SDS011;4876;42.656;23.292;2023-04-08T05:51:22;23.83;;;16.10;;
9675;SDS011;4876;42.656;23.292;2023-04-08T05:53:51;23.97;;;14.30;;
9675;SDS011;4876;42.656;23.292;2023-04-08T05:56:18;19.93;;;15.20;;
9675;SDS011;4876;42.656;23.292;2023-04-08T05:58:47;20.80;;;15.43;;
9675;SDS011;4876;42.656;23.292;2023-04-08T06:01:16;19.90;;;15.00;;
9675;SDS011;4876;42.656;23.292;2023-04-08T06:03:45;23.20;;;14.80;;
9675;SDS011;4876;42.656;23.292;2023-04-08T06:06:20;28.17;;;17.47;;
9675;SDS011;4876;42.656;23.292;2023-04-08T06:08:56;25.23;;;17.83;;
9675;SDS011;4876;42.656;23.292;2023-04-08T06:11:26;24.53;;;17.73;;
9675;SDS011;4876;42.656;23.292;2023-04-08T06:13:53;26.20;;;17.30;;
9675;SDS011;4876;42.656;23.292;2023-04-08T06:16:21;22.40;;;16.03;;
9675;SDS011;4876;42.656;23.292;2023-04-08T06:18:49;25.17;;;16.57;;
9675;SDS011;4876;42.656;23.292;2023-04-08T06:21:19;22.67;;;16.33;;
9675;SDS011;4876;42.656;23.292;2023-04-08T06:23:46;20.17;;;15.30;;
9675;SDS011;4876;42.656;23.292;2023-04-08T06:26:13;22.27;;;16.03;;
9675;SDS011;4876;42.656;23.292;2023-04-08T06:28:40;24.47;;;15.80;;
9675;SDS011;4876;42.656;23.292;2023-04-08T06:31:07;26.03;;;16.87;;
9675;SDS011;4876;42.656;23.292;2023-04-08T06:33:35;25.93;;;16.53;;
9675;SDS011;4876;42.656;23.292;2023-04-08T06:36:02;19.83;;;14.43;;
9675;SDS011;4876;42.656;23.292;2023-04-08T06:38:29;24.47;;;16.00;;
9675;SDS011;4876;42.656;23.292;2023-04-08T06:41:00;24.80;;;16.77;;
9675;SDS011;4876;42.656;23.292;2023-04-08T06:43:28;22.50;;;15.23;;
9675;SDS011;4876;42.656;23.292;2023-04-08T06:45:55;22.73;;;15.27;;
9675;SDS011;4876;42.656;23.292;2023-04-08T06:48:22;25.00;;;15.90;;
9675;SDS011;4876;42.656;23.292;2023-04-08T06:50:55;23.17;;;16.50;;
9675;SDS011;4876;42.656;23.292;2023-04-08T06:53:23;26.07;;;15.57;;
9675;SDS011;4876;42.656;23.292;2023-04-08T06:55:50;25.77;;;15.30;;
9675;SDS011;4876;42.656;23.292;2023-04-08T06:58:17;23.67;;;15.57;;
9675;SDS011;4876;42.656;23.292;2023-04-08T07:00:44;21.07;;;15.70;;
9675;SDS011;4876;42.656;23.292;2023-04-08T07:03:11;20.57;;;16.17;;
9675;SDS011;4876;42.656;23.292;2023-04-08T07:05:38;21.20;;;15.20;;
9675;SDS011;4876;42.656;23.292;2023-04-08T07:08:07;23.10;;;13.83;;
9675;SDS011;4876;42.656;23.292;2023-04-08T07:10:34;13.33;;;8.20;;
9675;SDS011;4876;42.656;23.292;2023-04-08T07:13:01;16.23;;;11.13;;
9675;SDS011;4876;42.656;23.292;2023-04-08T07:15:28;22.40;;;11.50;;
9675;SDS011;4876;42.656;23.292;2023-04-08T07:17:55;15.67;;;12.87;;
9675;SDS011;4876;42.656;23.292;2023-04-08T07:20:22;16.17;;;13.33;;
9675;SDS011;4876;42.656;23.292;2023-04-08T07:22:50;12.07;;;8.93;;
9675;SDS011;4876;42.656;23.292;2023-04-08T07:25:18;16.67;;;12.00;;
9675;SDS011;4876;42.656;23.292;2023-04-08T07:27:45;21.33;;;14.73;;
9675;SDS011;4876;42.656;23.292;2023-04-08T07:30:11;20.43;;;13.23;;
9675;SDS011;4876;42.656;23.292;2023-04-08T07:32:38;20.83;;;13.53;;
9675;SDS011;4876;42.656;23.292;2023-04-08T07:35:05;17.17;;;10.00;;
9675;SDS011;4876;42.656;23.292;2023-04-08T07:37:33;18.77;;;12.73;;
9675;SDS011;4876;42.656;23.292;2023-04-08T07:39:59;17.80;;;13.67;;
9675;SDS011;4876;42.656;23.292;2023-04-08T07:42:28;18.40;;;13.47;;
9675;SDS011;4876;42.656;23.292;2023-04-08T07:44:54;17.40;;;13.33;;
9675;SDS011;4876;42.656;23.292;2023-04-08T07:47:21;19.00;;;13.20;;
9675;SDS011;4876;42.656;23.292;2023-04-08T07:49:48;26.47;;;13.33;;
9675;SDS011;4876;42.656;23.292;2023-04-08T07:52:15;21.37;;;12.63;;
9675;SDS011;4876;42.656;23.292;2023-04-08T07:54:41;18.60;;;13.90;;
9675;SDS011;4876;42.656;23.292;2023-04-08T07:57:08;17.33;;;12.90;;
9675;SDS011;4876;42.656;23.292;2023-04-08T07:59:36;20.20;;;14.10;;
9675;SDS011;4876;42.656;23.292;2023-04-08T08:02:03;14.83;;;13.10;;
9675;SDS011;4876;42.656;23.292;2023-04-08T08:04:30;20.67;;;12.67;;
9675;SDS011;4876;42.656;23.292;2023-04-08T08:06:57;19.23;;;12.97;;
9675;SDS011;4876;42.656;23.292;2023-04-08T08:09:23;15.67;;;12.63;;
9675;SDS011;4876;42.656;23.292;2023-04-08T08:11:50;17.73;;;13.27;;
9675;SDS011;4876;42.656;23.292;2023-04-08T08:14:17;14.73;;;12.67;;
9675;SDS011;4876;42.656;23.292;2023-04-08T08:16:45;19.87;;;12.67;;
9675;SDS011;4876;42.656;23.292;2023-04-08T08:19:13;16.90;;;12.97;;
9675;SDS011;4876;42.656;23.292;2023-04-08T08:21:40;15.87;;;13.50;;
9675;SDS011;4876;42.656;23.292;2023-04-08T08:24:07;23.10;;;14.20;;
9675;SDS011;4876;42.656;23.292;2023-04-08T08:26:34;17.20;;;13.77;;
9675;SDS011;4876;42.656;23.292;2023-04-08T08:29:02;22.73;;;14.70;;
9675;SDS011;4876;42.656;23.292;2023-04-08T08:31:29;20.03;;;13.13;;
9675;SDS011;4876;42.656;23.292;2023-04-08T08:33:57;23.80;;;14.77;;
9675;SDS011;4876;42.656;23.292;2023-04-08T08:36:23;16.77;;;12.90;;
9675;SDS011;4876;42.656;23.292;2023-04-08T08:38:51;19.67;;;13.33;;
9675;SDS011;4876;42.656;23.292;2023-04-08T08:41:18;19.17;;;13.30;;
9675;SDS011;4876;42.656;23.292;2023-04-08T08:43:45;19.23;;;12.27;;
9675;SDS011;4876;42.656;23.292;2023-04-08T08:46:14;17.50;;;12.53;;
9675;SDS011;4876;42.656;23.292;2023-04-08T08:48:43;23.07;;;13.50;;
9675;SDS011;4876;42.656;23.292;2023-04-08T08:51:12;16.53;;;12.10;;
9675;SDS011;4876;42.656;23.292;2023-04-08T08:53:38;16.17;;;13.07;;
9675;SDS011;4876;42.656;23.292;2023-04-08T08:56:09;17.23;;;11.17;;
9675;SDS011;4876;42.656;23.292;2023-04-08T08:58:36;16.93;;;11.57;;
9675;SDS011;4876;42.656;23.292;2023-04-08T09:04:08;14.53;;;10.60;;
9675;SDS011;4876;42.656;23.292;2023-04-08T09:06:38;21.40;;;14.50;;
9675;SDS011;4876;42.656;23.292;2023-04-08T09:09:05;16.97;;;11.03;;
9675;SDS011;4876;42.656;23.292;2023-04-08T09:11:37;19.87;;;12.13;;
9675;SDS011;4876;42.656;23.292;2023-04-08T09:14:05;14.67;;;9.97;;
9675;SDS011;4876;42.656;23.292;2023-04-08T09:16:43;19.90;;;13.27;;
9675;SDS011;4876;42.656;23.292;2023-04-08T09:19:11;17.23;;;13.23;;
9675;SDS011;4876;42.656;23.292;2023-04-08T09:21:41;22.10;;;12.73;;
9675;SDS011;4876;42.656;23.292;2023-04-08T09:24:08;17.30;;;13.30;;
9675;SDS011;4876;42.656;23.292;2023-04-08T09:26:35;16.20;;;12.50;;
9675;SDS011;4876;42.656;23.292;2023-04-08T09:29:03;21.63;;;14.67;;
9675;SDS011;4876;42.656;23.292;2023-04-08T09:31:32;10.77;;;7.93;;
9675;SDS011;4876;42.656;23.292;2023-04-08T09:34:00;15.67;;;10.23;;
9675;SDS011;4876;42.656;23.292;2023-04-08T09:36:35;16.87;;;12.50;;
9675;SDS011;4876;42.656;23.292;2023-04-08T09:39:03;15.17;;;11.10;;
9675;SDS011;4876;42.656;23.292;2023-04-08T09:41:32;18.37;;;12.77;;
9675;SDS011;4876;42.656;23.292;2023-04-08T09:44:02;11.07;;;9.40;;
9675;SDS011;4876;42.656;23.292;2023-04-08T09:46:31;13.43;;;10.57;;
9675;SDS011;4876;42.656;23.292;2023-04-08T09:49:04;12.77;;;10.90;;
9675;SDS011;4876;42.656;23.292;2023-04-08T09:51:34;11.83;;;8.50;;
9675;SDS011;4876;42.656;23.292;2023-04-08T09:54:07;8.70;;;6.63;;
9675;SDS011;4876;42.656;23.292;2023-04-08T09:56:40;12.70;;;8.57;;
9675;SDS011;4876;42.656;23.292;2023-04-08T09:59:11;12.50;;;9.83;;
9675;SDS011;4876;42.656;23.292;2023-04-08T10:01:43;12.90;;;9.90;;
9675;SDS011;4876;42.656;23.292;2023-04-08T10:04:13;16.80;;;11.70;;
9675;SDS011;4876;42.656;23.292;2023-04-08T10:06:42;11.57;;;8.90;;
9675;SDS011;4876;42.656;23.292;2023-04-08T10:09:10;13.63;;;10.60;;
9675;SDS011;4876;42.656;23.292;2023-04-08T10:11:37;17.47;;;11.87;;
9675;SDS011;4876;42.656;23.292;2023-04-08T10:14:04;14.70;;;12.17;;
9675;SDS011;4876;42.656;23.292;2023-04-08T10:16:32;16.47;;;11.53;;
9675;SDS011;4876;42.656;23.292;2023-04-08T10:18:58;17.93;;;13.20;;
9675;SDS011;4876;42.656;23.292;2023-04-08T10:21:36;18.80;;;13.03;;
9675;SDS011;4876;42.656;23.292;2023-04-08T10:24:07;17.33;;;12.53;;
9675;SDS011;4876;42.656;23.292;2023-04-08T10:26:37;18.20;;;13.60;;
9675;SDS011;4876;42.656;23.292;2023-04-08T10:34:55;14.43;;;10.67;;
9675;SDS011;4876;42.656;23.292;2023-04-08T10:37:22;13.40;;;9.87;;
9675;SDS011;4876;42.656;23.292;2023-04-08T10:39:50;16.23;;;10.43;;
9675;SDS011;4876;42.656;23.292;2023-04-08T10:42:25;17.20;;;10.37;;
9675;SDS011;4876;42.656;23.292;2023-04-08T10:44:52;20.13;;;14.47;;
9675;SDS011;4876;42.656;23.292;2023-04-08T10:47:24;18.20;;;12.83;;
9675;SDS011;4876;42.656;23.292;2023-04-08T10:49:52;16.10;;;6.97;;
9675;SDS011;4876;42.656;23.292;2023-04-08T10:52:19;14.13;;;9.90;;
9675;SDS011;4876;42.656;23.292;2023-04-08T10:54:47;19.70;;;12.77;;
9675;SDS011;4876;42.656;23.292;2023-04-08T10:57:15;16.67;;;12.33;;
9675;SDS011;4876;42.656;23.292;2023-04-08T10:59:49;15.53;;;9.13;;
9675;SDS011;4876;42.656;23.292;2023-04-08T11:02:16;11.30;;;7.80;;
9675;SDS011;4876;42.656;23.292;2023-04-08T11:04:43;14.63;;;11.80;;
9675;SDS011;4876;42.656;23.292;2023-04-08T11:07:11;11.57;;;8.07;;
9675;SDS011;4876;42.656;23.292;2023-04-08T11:09:39;19.10;;;11.53;;
9675;SDS011;4876;42.656;23.292;2023-04-08T11:12:06;23.60;;;13.00;;
9675;SDS011;4876;42.656;23.292;2023-04-08T11:14:34;18.53;;;11.37;;
9675;SDS011;4876;42.656;23.292;2023-04-08T11:17:02;16.37;;;12.10;;
9675;SDS011;4876;42.656;23.292;2023-04-08T11:19:30;19.27;;;12.60;;
9675;SDS011;4876;42.656;23.292;2023-04-08T11:21:57;12.33;;;7.73;;
9675;SDS011;4876;42.656;23.292;2023-04-08T11:24:25;16.93;;;9.87;;
9675;SDS011;4876;42.656;23.292;2023-04-08T11:26:54;11.47;;;9.40;;
9675;SDS011;4876;42.656;23.292;2023-04-08T11:29:21;17.40;;;10.80;;
9675;SDS011;4876;42.656;23.292;2023-04-08T11:31:49;13.03;;;8.93;;
9675;SDS011;4876;42.656;23.292;2023-04-08T11:34:20;14.37;;;9.43;;
9675;SDS011;4876;42.656;23.292;2023-04-08T11:36:48;13.67;;;9.33;;
9675;SDS011;4876;42.656;23.292;2023-04-08T11:39:16;9.00;;;7.47;;
9675;SDS011;4876;42.656;23.292;2023-04-08T11:41:42;9.07;;;7.53;;
9675;SDS011;4876;42.656;23.292;2023-04-08T11:44:09;8.03;;;6.57;;
9675;SDS011;4876;42.656;23.292;2023-04-08T11:46:36;6.13;;;5.10;;
9675;SDS011;4876;42.656;23.292;2023-04-08T11:49:06;9.17;;;8.17;;
9675;SDS011;4876;42.656;23.292;2023-04-08T11:51:35;12.60;;;8.17;;
9675;SDS011;4876;42.656;23.292;2023-04-08T11:54:26;10.43;;;7.47;;
9675;SDS011;4876;42.656;23.292;2023-04-08T11:56:53;9.33;;;6.50;;
9675;SDS011;4876;42.656;23.292;2023-04-08T11:59:22;7.67;;;5.73;;
9675;SDS011;4876;42.656;23.292;2023-04-08T12:01:50;9.77;;;7.80;;
9675;SDS011;4876;42.656;23.292;2023-04-08T12:04:18;10.70;;;8.90;;
9675;SDS011;4876;42.656;23.292;2023-04-08T12:06:45;12.70;;;7.97;;
9675;SDS011;4876;42.656;23.292;2023-04-08T12:09:12;15.10;;;6.70;;
9675;SDS011;4876;42.656;23.292;2023-04-08T12:11:39;10.77;;;8.17;;
9675;SDS011;4876;42.656;23.292;2023-04-08T12:14:06;9.63;;;7.27;;
9675;SDS011;4876;42.656;23.292;2023-04-08T12:16:51;11.23;;;8.57;;
9675;SDS011;4876;42.656;23.292;2023-04-08T12:19:21;10.30;;;8.17;;
9675;SDS011;4876;42.656;23.292;2023-04-08T12:22:11;11.10;;;8.20;;
9675;SDS011;4876;42.656;23.292;2023-04-08T12:24:38;9.63;;;8.00;;
9675;SDS011;4876;42.656;23.292;2023-04-08T12:27:04;10.87;;;9.10;;
9675;SDS011;4876;42.656;23.292;2023-04-08T12:29:31;9.10;;;6.73;;
9675;SDS011;4876;42.656;23.292;2023-04-08T12:31:58;14.03;;;9.40;;
9675;SDS011;4876;42.656;23.292;2023-04-08T12:34:27;12.07;;;8.77;;
9675;SDS011;4876;42.656;23.292;2023-04-08T12:36:54;12.93;;;7.83;;
9675;SDS011;4876;42.656;23.292;2023-04-08T12:39:21;10.53;;;8.60;;
9675;SDS011;4876;42.656;23.292;2023-04-08T12:41:48;8.90;;;6.73;;
9675;SDS011;4876;42.656;23.292;2023-04-08T12:44:14;13.63;;;8.40;;
9675;SDS011;4876;42.656;23.292;2023-04-08T12:46:41;5.17;;;4.67;;
9675;SDS011;4876;42.656;23.292;2023-04-08T12:49:08;10.90;;;7.67;;
9675;SDS011;4876;42.656;23.292;2023-04-08T12:51:37;8.33;;;6.37;;
9675;SDS011;4876;42.656;23.292;2023-04-08T12:54:04;7.13;;;5.87;;
9675;SDS011;4876;42.656;23.292;2023-04-08T12:56:31;9.10;;;7.10;;
9675;SDS011;4876;42.656;23.292;2023-04-08T12:58:58;8.73;;;7.47;;
9675;SDS011;4876;42.656;23.292;2023-04-08T13:01:26;9.40;;;7.60;;
9675;SDS011;4876;42.656;23.292;2023-04-08T13:03:53;8.63;;;7.63;;
9675;SDS011;4876;42.656;23.292;2023-04-08T13:06:20;12.13;;;8.10;;
9675;SDS011;4876;42.656;23.292;2023-04-08T13:08:49;12.67;;;8.60;;
9675;SDS011;4876;42.656;23.292;2023-04-08T13:11:16;10.77;;;7.33;;
9675;SDS011;4876;42.656;23.292;2023-04-08T13:13:42;6.80;;;5.77;;
9675;SDS011;4876;42.656;23.292;2023-04-08T13:16:10;7.17;;;5.20;;
9675;SDS011;4876;42.656;23.292;2023-04-08T13:18:38;9.57;;;6.53;;
9675;SDS011;4876;42.656;23.292;2023-04-08T13:21:05;13.63;;;6.27;;
9675;SDS011;4876;42.656;23.292;2023-04-08T13:23:32;9.50;;;7.00;;
9675;SDS011;4876;42.656;23.292;2023-04-08T13:26:00;7.70;;;6.47;;
9675;SDS011;4876;42.656;23.292;2023-04-08T13:28:27;10.40;;;6.50;;
9675;SDS011;4876;42.656;23.292;2023-04-08T13:30:54;13.30;;;9.30;;
9675;SDS011;4876;42.656;23.292;2023-04-08T13:33:20;10.27;;;8.60;;
9675;SDS011;4876;42.656;23.292;2023-04-08T13:35:47;9.80;;;8.80;;
9675;SDS011;4876;42.656;23.292;2023-04-08T13:38:14;14.93;;;12.83;;
9675;SDS011;4876;42.656;23.292;2023-04-08T13:40:41;9.47;;;8.20;;
9675;SDS011;4876;42.656;23.292;2023-04-08T13:43:10;8.30;;;5.10;;
9675;SDS011;4876;42.656;23.292;2023-04-08T13:45:38;8.43;;;7.30;;
9675;SDS011;4876;42.656;23.292;2023-04-08T13:48:05;14.97;;;9.13;;
9675;SDS011;4876;42.656;23.292;2023-04-08T13:50:32;15.17;;;10.13;;
9675;SDS011;4876;42.656;23.292;2023-04-08T13:52:59;12.20;;;8.70;;
9675;SDS011;4876;42.656;23.292;2023-04-08T13:55:26;10.00;;;8.87;;
9675;SDS011;4876;42.656;23.292;2023-04-08T13:57:53;9.93;;;7.57;;
9675;SDS011;4876;42.656;23.292;2023-04-08T14:00:21;11.63;;;9.40;;
9675;SDS011;4876;42.656;23.292;2023-04-08T14:02:49;11.73;;;8.80;;
9675;SDS011;4876;42.656;23.292;2023-04-08T14:05:16;11.27;;;8.27;;
9675;SDS011;4876;42.656;23.292;2023-04-08T14:07:43;13.17;;;10.23;;
9675;SDS011;4876;42.656;23.292;2023-04-08T14:10:10;10.07;;;8.80;;
9675;SDS011;4876;42.656;23.292;2023-04-08T14:12:38;8.17;;;6.20;;
9675;SDS011;4876;42.656;23.292;2023-04-08T14:15:06;12.27;;;7.50;;
9675;SDS011;4876;42.656;23.292;2023-04-08T14:17:35;9.00;;;8.03;;
9675;SDS011;4876;42.656;23.292;2023-04-08T14:20:02;9.63;;;7.97;;
9675;SDS011;4876;42.656;23.292;2023-04-08T14:22:30;12.33;;;7.17;;
9675;SDS011;4876;42.656;23.292;2023-04-08T14:24:57;9.63;;;7.03;;
9675;SDS011;4876;42.656;23.292;2023-04-08T14:27:24;11.83;;;8.30;;
9675;SDS011;4876;42.656;23.292;2023-04-08T14:29:50;11.10;;;8.67;;
9675;SDS011;4876;42.656;23.292;2023-04-08T14:32:17;8.53;;;7.00;;
9675;SDS011;4876;42.656;23.292;2023-04-08T14:34:45;9.73;;;7.87;;
9675;SDS011;4876;42.656;23.292;2023-04-08T14:37:13;9.43;;;8.20;;
9675;SDS011;4876;42.656;23.292;2023-04-08T14:39:42;10.93;;;7.73;;
9675;SDS011;4876;42.656;23.292;2023-04-08T14:42:08;10.80;;;7.37;;
9675;SDS011;4876;42.656;23.292;2023-04-08T14:44:35;11.90;;;8.43;;
9675;SDS011;4876;42.656;23.292;2023-04-08T14:47:02;10.70;;;8.47;;
9675;SDS011;4876;42.656;23.292;2023-04-08T14:49:29;14.53;;;8.47;;
9675;SDS011;4876;42.656;23.292;2023-04-08T14:51:57;8.83;;;7.30;;
9675;SDS011;4876;42.656;23.292;2023-04-08T14:54:24;18.13;;;12.00;;